createdAt,value
2023-02-28T00:01:23.386Z,3.50
2023-02-28T00:03:50.429Z,3.50
2023-02-28T00:06:17.294Z,3.40
2023-02-28T00:08:44.301Z,3.40
2023-02-28T00:11:12.843Z,3.30
2023-02-28T00:13:43.749Z,3.20
2023-02-28T00:16:11.978Z,3.20
2023-02-28T00:18:38.917Z,3.30
2023-02-28T00:21:06.377Z,3.30
2023-02-28T00:23:33.455Z,3.30
2023-02-28T00:26:00.312Z,3.30
2023-02-28T00:28:27.372Z,3.30
2023-02-28T00:30:54.306Z,3.30
2023-02-28T00:33:21.225Z,3.30
2023-02-28T00:35:48.482Z,3.30
2023-02-28T00:38:16.189Z,3.30
2023-02-28T00:40:43.253Z,3.30
2023-02-28T00:43:10.045Z,3.20
2023-02-28T00:45:37.039Z,3.20
2023-02-28T00:48:04.120Z,3.20
2023-02-28T00:50:31.004Z,3.30
2023-02-28T00:52:57.824Z,3.30
2023-02-28T00:55:24.710Z,3.30
2023-02-28T00:57:51.539Z,3.30
2023-02-28T01:00:18.825Z,3.30
2023-02-28T01:02:45.655Z,3.40
2023-02-28T01:05:12.536Z,3.40
2023-02-28T01:07:39.656Z,3.30
2023-02-28T01:10:06.811Z,3.30
2023-02-28T01:12:33.785Z,3.30
2023-02-28T01:15:00.681Z,3.30
2023-02-28T01:17:27.643Z,3.30
2023-02-28T01:19:55.905Z,3.20
2023-02-28T01:22:22.907Z,3.20
2023-02-28T01:24:49.867Z,3.30
2023-02-28T01:27:16.732Z,3.30
2023-02-28T01:29:43.684Z,3.30
2023-02-28T01:32:10.627Z,3.30
2023-02-28T01:34:37.580Z,3.30
2023-02-28T01:37:04.758Z,3.30
2023-02-28T01:39:31.705Z,3.20
2023-02-28T01:41:58.578Z,3.20
2023-02-28T01:44:43.941Z,3.20
2023-02-28T01:47:10.811Z,3.10
2023-02-28T01:49:37.885Z,3.10
2023-02-28T01:52:05.050Z,3.10
2023-02-28T01:54:32.967Z,3.10
2023-02-28T01:57:02.276Z,3.10
2023-02-28T01:59:34.339Z,3.10
2023-02-28T02:02:01.740Z,3.10
2023-02-28T02:04:31.931Z,3.10
2023-02-28T02:06:59.868Z,3.10
2023-02-28T02:09:26.713Z,3.10
2023-02-28T02:11:56.120Z,3.10
2023-02-28T02:14:43.942Z,3.00
2023-02-28T02:17:32.032Z,3.00
2023-02-28T02:20:14.292Z,3.00
2023-02-28T02:22:44.074Z,3.00
2023-02-28T02:25:20.122Z,3.10
2023-02-28T02:28:02.293Z,3.00
2023-02-28T02:30:44.477Z,3.10
2023-02-28T02:33:24.365Z,3.00
2023-02-28T02:36:17.547Z,3.00
2023-02-28T02:39:02.765Z,3.00
2023-02-28T02:41:29.818Z,3.00
2023-02-28T02:44:15.723Z,3.10
2023-02-28T02:46:45.212Z,3.10
2023-02-28T02:49:17.805Z,3.10
2023-02-28T02:51:45.599Z,3.00
2023-02-28T02:54:17.301Z,3.00
2023-02-28T02:56:45.610Z,3.00
2023-02-28T02:59:14.301Z,3.00
2023-02-28T03:01:42.201Z,3.00
2023-02-28T03:04:10.649Z,2.90
2023-02-28T03:06:40.186Z,2.90
2023-02-28T03:09:07.087Z,2.90
2023-02-28T03:11:36.581Z,2.90
2023-02-28T03:14:03.689Z,2.90
2023-02-28T03:16:33.584Z,2.90
2023-02-28T03:19:00.450Z,2.90
2023-02-28T03:21:36.478Z,2.90
2023-02-28T03:24:06.473Z,2.90
2023-02-28T03:26:35.221Z,2.90
2023-02-28T03:29:23.397Z,3.00
2023-02-28T03:31:56.597Z,3.00
2023-02-28T03:34:27.592Z,3.00
2023-02-28T03:36:56.661Z,2.90
2023-02-28T03:39:27.162Z,2.90
2023-02-28T03:41:58.424Z,2.90
2023-02-28T03:44:43.856Z,2.90
2023-02-28T03:47:16.822Z,2.90
2023-02-28T03:49:46.817Z,2.90
2023-02-28T03:52:13.718Z,2.90
2023-02-28T03:54:47.107Z,2.90
2023-02-28T03:57:13.942Z,2.90
2023-02-28T03:59:47.304Z,2.90
2023-02-28T04:02:14.427Z,2.90
2023-02-28T04:04:46.331Z,2.90
2023-02-28T04:07:13.463Z,2.90
2023-02-28T04:09:40.291Z,2.90
2023-02-28T04:12:07.312Z,2.90
2023-02-28T04:14:34.169Z,2.90
2023-02-28T04:17:01.052Z,2.90
2023-02-28T04:19:27.921Z,2.90
2023-02-28T04:21:55.300Z,2.90
2023-02-28T04:24:26.467Z,2.90
2023-02-28T04:26:54.281Z,2.90
2023-02-28T04:29:28.727Z,2.90
2023-02-28T04:31:59.057Z,2.90
2023-02-28T04:34:27.039Z,2.90
2023-02-28T04:37:11.611Z,2.80
2023-02-28T04:39:40.196Z,2.90
2023-02-28T04:42:07.337Z,2.90
2023-02-28T04:44:34.234Z,2.80
2023-02-28T04:47:01.216Z,2.80
2023-02-28T04:49:28.130Z,2.80
2023-02-28T04:51:55.033Z,2.80
2023-02-28T04:54:21.942Z,2.70
2023-02-28T04:56:51.118Z,2.70
2023-02-28T04:59:18.490Z,2.70
2023-02-28T05:01:49.469Z,2.70
2023-02-28T05:04:16.715Z,2.70
2023-02-28T05:06:43.651Z,2.70
2023-02-28T05:09:12.905Z,2.60
2023-02-28T05:11:40.712Z,2.60
2023-02-28T05:14:11.514Z,2.60
2023-02-28T05:16:38.387Z,2.60
2023-02-28T05:19:05.495Z,2.50
2023-02-28T05:21:33.948Z,2.50
2023-02-28T05:24:01.966Z,2.50
2023-02-28T05:26:29.465Z,2.50
2023-02-28T05:28:56.995Z,2.50
2023-02-28T05:31:24.230Z,2.50
2023-02-28T05:33:51.204Z,2.40
2023-02-28T05:36:18.189Z,2.30
2023-02-28T05:38:46.855Z,2.30
2023-02-28T05:41:13.708Z,2.30
2023-02-28T05:43:40.638Z,2.30
2023-02-28T05:46:08.343Z,2.30
2023-02-28T05:48:35.907Z,2.30
2023-02-28T05:51:03.681Z,2.30
2023-02-28T05:53:30.994Z,2.30
2023-02-28T05:55:58.085Z,2.30
2023-02-28T05:58:26.599Z,2.30
2023-02-28T06:00:53.546Z,2.30
2023-02-28T06:03:20.407Z,2.20
2023-02-28T06:05:47.438Z,2.20
2023-02-28T06:08:14.255Z,2.20
2023-02-28T06:10:41.111Z,2.20
2023-02-28T06:13:07.996Z,2.20
2023-02-28T06:15:35.375Z,2.10
2023-02-28T06:18:02.254Z,2.20
2023-02-28T06:20:32.072Z,2.20
2023-02-28T06:23:01.511Z,2.20
2023-02-28T06:25:28.732Z,2.10
2023-02-28T06:27:56.030Z,2.10
2023-02-28T06:30:26.441Z,2.10
2023-02-28T06:32:53.722Z,2.10
2023-02-28T06:35:20.597Z,2.10
2023-02-28T06:37:48.298Z,2.10
2023-02-28T06:40:15.272Z,2.10
2023-02-28T06:42:42.383Z,2.10
2023-02-28T06:45:10.667Z,2.20
2023-02-28T06:47:39.168Z,2.20
2023-02-28T06:50:06.593Z,2.20
2023-02-28T06:52:33.511Z,2.30
2023-02-28T06:55:03.084Z,2.30
2023-02-28T06:57:33.977Z,2.30
2023-02-28T07:00:01.683Z,2.40
2023-02-28T07:02:28.898Z,2.40
2023-02-28T07:04:55.849Z,2.50
2023-02-28T07:07:23.030Z,2.50
2023-02-28T07:09:49.890Z,2.50
2023-02-28T07:12:16.859Z,2.50
2023-02-28T07:14:43.812Z,2.60
2023-02-28T07:17:13.303Z,2.60
2023-02-28T07:19:40.698Z,2.70
2023-02-28T07:22:08.382Z,2.70
2023-02-28T07:24:35.348Z,2.70
2023-02-28T07:27:02.688Z,2.60
2023-02-28T07:29:29.681Z,2.60
2023-02-28T07:31:57.198Z,2.60
2023-02-28T07:34:24.131Z,2.60
2023-02-28T07:36:54.631Z,2.70
2023-02-28T07:39:22.130Z,2.70
2023-02-28T07:41:49.009Z,2.80
2023-02-28T07:44:16.038Z,2.90
2023-02-28T07:46:43.130Z,3.00
2023-02-28T07:49:10.044Z,3.00
2023-02-28T07:51:36.985Z,3.10
2023-02-28T07:54:04.002Z,3.10
2023-02-28T07:56:31.427Z,3.10
2023-02-28T07:58:58.698Z,3.10
2023-02-28T08:01:25.691Z,3.10
2023-02-28T08:03:52.676Z,3.20
2023-02-28T08:06:21.089Z,3.30
2023-02-28T08:08:48.375Z,3.40
2023-02-28T08:11:15.881Z,3.50
2023-02-28T08:13:45.124Z,3.60
2023-02-28T08:16:13.263Z,3.70
2023-02-28T08:18:40.207Z,3.70
2023-02-28T08:21:11.123Z,3.80
2023-02-28T08:23:38.232Z,3.80
2023-02-28T08:26:05.329Z,3.90
2023-02-28T08:28:32.269Z,4.00
2023-02-28T08:30:59.562Z,4.10
2023-02-28T08:33:27.697Z,4.20
2023-02-28T08:35:58.027Z,4.30
2023-02-28T08:38:25.686Z,4.50
2023-02-28T08:40:59.084Z,4.70
2023-02-28T08:43:26.173Z,4.80
2023-02-28T08:45:53.689Z,4.90
2023-02-28T08:48:20.694Z,5.00
2023-02-28T08:51:07.081Z,5.20
2023-02-28T08:53:34.949Z,5.30
2023-02-28T08:56:20.218Z,5.40
2023-02-28T08:58:47.610Z,5.60
2023-02-28T09:01:16.006Z,5.70
2023-02-28T09:03:43.380Z,5.90
2023-02-28T09:06:11.048Z,6.10
2023-02-28T09:08:38.242Z,6.20
2023-02-28T09:11:05.541Z,6.40
2023-02-28T09:13:33.400Z,6.70
2023-02-28T09:16:01.269Z,6.90
2023-02-28T09:18:28.851Z,7.10
2023-02-28T09:20:55.789Z,7.20
2023-02-28T09:23:23.180Z,7.40
2023-02-28T09:25:51.089Z,7.70
2023-02-28T09:28:18.204Z,8.00
2023-02-28T09:30:45.690Z,8.30
2023-02-28T09:33:12.614Z,8.60
2023-02-28T09:35:39.449Z,8.80
2023-02-28T09:38:06.428Z,9.10
2023-02-28T09:40:36.981Z,9.30
2023-02-28T09:43:04.146Z,9.40
2023-02-28T09:45:38.961Z,9.50
2023-02-28T09:48:11.858Z,9.60
2023-02-28T09:50:46.082Z,9.60
2023-02-28T09:53:35.311Z,9.50
2023-02-28T09:56:16.581Z,9.50
2023-02-28T09:58:48.036Z,9.50
2023-02-28T10:01:33.857Z,9.60
2023-02-28T10:04:13.655Z,9.70
2023-02-28T10:06:49.801Z,9.70
2023-02-28T10:09:20.234Z,9.60
2023-02-28T10:14:21.665Z,9.80
2023-02-28T10:17:03.125Z,9.80
2023-02-28T10:19:40.129Z,9.70
2023-02-28T10:22:13.257Z,9.80
2023-02-28T10:24:42.110Z,9.90
2023-02-28T10:27:22.461Z,10.00
2023-02-28T10:29:51.067Z,10.20
2023-02-28T10:32:19.303Z,10.20
2023-02-28T10:34:52.023Z,10.20
2023-02-28T10:37:20.645Z,10.30
2023-02-28T10:39:48.241Z,10.30
2023-02-28T10:42:22.936Z,10.20
2023-02-28T10:44:49.856Z,10.10
2023-02-28T10:47:18.206Z,10.00
2023-02-28T10:49:50.892Z,10.10
2023-02-28T10:52:34.054Z,10.30
2023-02-28T10:55:21.175Z,10.40
2023-02-28T10:57:48.636Z,10.60
2023-02-28T11:00:18.363Z,10.70
2023-02-28T11:02:45.903Z,10.80
2023-02-28T11:05:32.708Z,10.90
2023-02-28T11:08:19.841Z,11.00
2023-02-28T11:10:55.334Z,11.00
2023-02-28T11:13:26.370Z,11.10
2023-02-28T11:15:54.808Z,11.30
2023-02-28T11:18:24.098Z,11.30
2023-02-28T11:20:52.094Z,11.50
2023-02-28T11:23:20.061Z,11.50
2023-02-28T11:25:51.960Z,11.50
2023-02-28T11:28:32.513Z,11.60
2023-02-28T11:31:17.659Z,11.60
2023-02-28T11:33:51.942Z,11.70
2023-02-28T11:36:28.071Z,11.60
2023-02-28T11:38:56.097Z,11.60
2023-02-28T11:41:25.911Z,11.50
2023-02-28T11:44:11.363Z,11.60
2023-02-28T11:46:38.680Z,11.50
2023-02-28T11:49:24.324Z,11.40
2023-02-28T11:51:53.904Z,11.40
2023-02-28T11:54:39.494Z,11.50
2023-02-28T11:57:18.500Z,11.50
2023-02-28T11:59:45.499Z,11.60
2023-02-28T12:02:26.332Z,11.50
2023-02-28T12:04:57.296Z,11.60
2023-02-28T12:07:37.391Z,11.60
2023-02-28T12:10:20.965Z,11.50
2023-02-28T12:13:06.616Z,11.40
2023-02-28T12:16:02.791Z,11.30
2023-02-28T12:18:39.296Z,11.40
2023-02-28T12:21:13.325Z,11.50
2023-02-28T12:23:48.564Z,11.60
2023-02-28T12:26:30.749Z,11.70
2023-02-28T12:29:11.864Z,11.70
2023-02-28T12:31:43.037Z,11.80
2023-02-28T12:34:48.545Z,11.70
2023-02-28T12:37:18.555Z,11.70
2023-02-28T12:39:50.497Z,11.70
2023-02-28T12:42:21.325Z,11.70
2023-02-28T12:44:52.400Z,11.60
2023-02-28T12:47:19.692Z,11.50
2023-02-28T12:49:47.415Z,11.40
2023-02-28T12:52:17.581Z,11.40
2023-02-28T12:55:01.958Z,11.40
2023-02-28T12:57:47.381Z,11.30
2023-02-28T13:00:21.958Z,11.30
2023-02-28T13:02:48.768Z,11.20
2023-02-28T13:05:25.122Z,11.20
2023-02-28T13:07:57.820Z,11.20
2023-02-28T13:10:24.988Z,11.20
2023-02-28T13:12:53.150Z,11.10
2023-02-28T13:15:29.196Z,11.10
2023-02-28T13:17:58.174Z,11.00
2023-02-28T13:20:26.400Z,10.90
2023-02-28T13:22:54.596Z,10.80
2023-02-28T13:25:24.545Z,10.70
2023-02-28T13:27:57.767Z,10.60
2023-02-28T13:30:43.683Z,10.60
2023-02-28T13:33:28.733Z,10.60
2023-02-28T13:36:01.852Z,10.50
2023-02-28T13:38:39.643Z,10.40
2023-02-28T13:41:24.962Z,10.40
2023-02-28T13:44:11.489Z,10.30
2023-02-28T13:46:58.377Z,10.30
2023-02-28T13:49:35.092Z,10.30
2023-02-28T13:52:08.534Z,10.30
2023-02-28T13:54:54.972Z,10.30
2023-02-28T13:57:27.727Z,10.30
2023-02-28T14:00:13.326Z,10.30
2023-02-28T14:02:52.498Z,10.20
2023-02-28T14:05:22.831Z,10.20
2023-02-28T14:07:51.505Z,10.20
2023-02-28T14:10:39.844Z,10.10
2023-02-28T14:13:12.691Z,10.00
2023-02-28T14:15:39.794Z,10.00
2023-02-28T14:18:14.870Z,9.90
2023-02-28T14:20:42.279Z,9.90
2023-02-28T14:23:17.211Z,9.90
2023-02-28T14:25:57.138Z,9.80
2023-02-28T14:28:39.510Z,9.80
2023-02-28T14:31:38.855Z,9.80
2023-02-28T14:34:22.129Z,9.80
2023-02-28T14:36:49.595Z,9.80
2023-02-28T14:39:18.036Z,9.70
2023-02-28T14:41:45.707Z,9.70
2023-02-28T14:44:18.774Z,9.50
2023-02-28T14:46:46.575Z,9.40
2023-02-28T14:49:33.651Z,9.20
2023-02-28T14:52:03.492Z,9.10
2023-02-28T14:54:30.576Z,9.10
2023-02-28T14:56:57.567Z,9.10
2023-02-28T14:59:25.702Z,9.10
2023-02-28T15:01:54.184Z,9.10
2023-02-28T15:04:28.572Z,9.10
2023-02-28T15:07:10.701Z,9.00
2023-02-28T15:09:37.659Z,9.00
2023-02-28T15:12:04.870Z,9.00
2023-02-28T15:14:33.220Z,8.90
2023-02-28T15:17:03.327Z,8.90
2023-02-28T15:19:30.160Z,8.90
2023-02-28T15:22:07.813Z,8.90
2023-02-28T15:24:43.501Z,9.00
2023-02-28T15:27:14.945Z,9.00
2023-02-28T15:29:47.254Z,8.90
2023-02-28T15:32:33.573Z,8.80
2023-02-28T15:35:17.903Z,8.80
2023-02-28T15:38:03.513Z,8.70
2023-02-28T15:40:32.385Z,8.70
2023-02-28T15:43:00.630Z,8.60
2023-02-28T15:45:28.813Z,8.50
2023-02-28T15:47:57.903Z,8.50
2023-02-28T15:50:30.451Z,8.40
2023-02-28T15:52:58.120Z,8.30
2023-02-28T15:55:27.432Z,8.30
2023-02-28T15:57:56.074Z,8.30
2023-02-28T16:00:24.414Z,8.20
2023-02-28T16:02:51.932Z,8.20
2023-02-28T16:05:33.079Z,8.20
2023-02-28T16:08:13.332Z,8.20
2023-02-28T16:10:40.386Z,8.20
2023-02-28T16:13:07.634Z,8.20
2023-02-28T16:15:42.669Z,8.10
2023-02-28T16:18:11.458Z,8.10
2023-02-28T16:20:38.556Z,8.10
2023-02-28T16:23:05.418Z,8.00
2023-02-28T16:25:37.262Z,8.00
2023-02-28T16:28:04.596Z,7.90
2023-02-28T16:30:32.699Z,7.90
2023-02-28T16:32:59.817Z,7.90
2023-02-28T16:35:26.749Z,7.80
2023-02-28T16:37:55.949Z,7.80
2023-02-28T16:40:24.247Z,7.80
2023-02-28T16:42:52.445Z,7.70
2023-02-28T16:45:21.361Z,7.70
2023-02-28T16:47:48.534Z,7.60
2023-02-28T16:50:20.367Z,7.60
2023-02-28T16:52:47.527Z,7.60
2023-02-28T16:55:14.838Z,7.60
2023-02-28T16:57:42.051Z,7.60
2023-02-28T17:00:12.040Z,7.50
2023-02-28T17:02:41.308Z,7.50
2023-02-28T17:05:10.607Z,7.50
2023-02-28T17:07:37.509Z,7.40
2023-02-28T17:10:12.552Z,7.40
2023-02-28T17:12:39.417Z,7.40
2023-02-28T17:15:07.644Z,7.30
2023-02-28T17:17:34.759Z,7.30
2023-02-28T17:20:01.779Z,7.20
2023-02-28T17:22:28.611Z,7.20
2023-02-28T17:25:00.121Z,7.10
2023-02-28T17:27:27.175Z,7.10
2023-02-28T17:29:54.194Z,7.10
2023-02-28T17:32:21.188Z,7.10
2023-02-28T17:34:48.299Z,7.10
2023-02-28T17:37:15.268Z,7.10
2023-02-28T17:39:42.278Z,7.10
2023-02-28T17:42:09.203Z,7.10
2023-02-28T17:44:36.129Z,7.10
2023-02-28T17:47:03.063Z,7.10
2023-02-28T17:49:29.893Z,7.10
2023-02-28T17:51:56.840Z,7.00
2023-02-28T17:54:23.660Z,7.00
2023-02-28T17:56:50.559Z,7.00
2023-02-28T17:59:17.465Z,7.10
2023-02-28T18:01:44.473Z,7.20
2023-02-28T18:04:11.419Z,7.10
2023-02-28T18:06:50.997Z,7.10
2023-02-28T18:09:22.636Z,7.10
2023-02-28T18:11:53.354Z,7.10
2023-02-28T18:14:21.847Z,7.10
2023-02-28T18:16:48.766Z,7.10
2023-02-28T18:19:17.657Z,7.10
2023-02-28T18:21:45.821Z,7.10
2023-02-28T18:24:13.574Z,7.10
2023-02-28T18:26:40.905Z,7.10
2023-02-28T18:29:08.344Z,7.10
2023-02-28T18:31:35.502Z,7.10
2023-02-28T18:34:02.477Z,7.20
2023-02-28T18:36:47.318Z,7.20
2023-02-28T18:39:15.117Z,7.20
2023-02-28T18:41:42.311Z,7.20
2023-02-28T18:44:19.180Z,7.20
2023-02-28T18:46:47.164Z,7.20
2023-02-28T18:49:14.270Z,7.10
2023-02-28T18:51:45.388Z,7.10
2023-02-28T18:54:17.149Z,7.10
2023-02-28T18:56:44.083Z,7.10
2023-02-28T18:59:11.483Z,7.10
2023-02-28T19:01:38.512Z,7.10
2023-02-28T19:04:05.647Z,7.10
2023-02-28T19:06:33.127Z,7.10
2023-02-28T19:09:01.018Z,7.10
2023-02-28T19:11:28.298Z,7.10
2023-02-28T19:13:55.225Z,7.10
2023-02-28T19:16:22.770Z,7.10
2023-02-28T19:18:50.357Z,7.00
2023-02-28T19:21:21.769Z,7.00
2023-02-28T19:23:48.752Z,7.00
2023-02-28T19:26:20.461Z,7.00
2023-02-28T19:28:47.575Z,7.00
2023-02-28T19:31:21.850Z,6.90
2023-02-28T19:33:48.995Z,6.80
2023-02-28T19:36:15.983Z,6.70
2023-02-28T19:38:44.895Z,6.70
2023-02-28T19:41:12.703Z,6.60
2023-02-28T19:43:40.046Z,6.60
2023-02-28T19:46:07.469Z,6.50
2023-02-28T19:48:34.365Z,6.50
2023-02-28T19:51:02.677Z,6.40
2023-02-28T19:53:30.640Z,6.30
2023-02-28T19:55:57.620Z,6.20
2023-02-28T19:58:24.586Z,6.10
2023-02-28T20:00:51.579Z,6.00
2023-02-28T20:03:18.738Z,5.90
2023-02-28T20:05:46.705Z,5.90
2023-02-28T20:08:14.190Z,5.90
2023-02-28T20:10:41.282Z,5.80
2023-02-28T20:13:09.168Z,5.70
2023-02-28T20:15:37.557Z,5.60
2023-02-28T20:18:05.109Z,5.60
2023-02-28T20:20:35.795Z,5.50
2023-02-28T20:23:02.820Z,5.50
2023-02-28T20:25:30.349Z,5.40
2023-02-28T20:27:57.209Z,5.40
2023-02-28T20:30:25.049Z,5.30
2023-02-28T20:32:51.955Z,5.30
2023-02-28T20:35:18.880Z,5.40
2023-02-28T20:37:45.806Z,5.40
2023-02-28T20:40:13.573Z,5.50
2023-02-28T20:42:40.551Z,5.40
2023-02-28T20:45:08.125Z,5.40
2023-02-28T20:47:34.984Z,5.30
2023-02-28T20:50:01.979Z,5.20
2023-02-28T20:52:28.841Z,5.10
2023-02-28T20:54:55.689Z,5.10
2023-02-28T20:57:22.570Z,5.10
2023-02-28T20:59:49.505Z,5.10
2023-02-28T21:02:17.160Z,5.00
2023-02-28T21:04:44.125Z,5.00
2023-02-28T21:07:11.428Z,5.00
2023-02-28T21:09:38.511Z,5.00
2023-02-28T21:12:05.434Z,4.90
2023-02-28T21:14:32.568Z,4.90
2023-02-28T21:16:59.473Z,4.80
2023-02-28T21:19:26.668Z,4.70
2023-02-28T21:21:55.905Z,4.70
2023-02-28T21:24:23.235Z,4.70
2023-02-28T21:26:50.124Z,4.60
2023-02-28T21:29:20.182Z,4.70
2023-02-28T21:31:47.130Z,4.60
2023-02-28T21:34:14.332Z,4.60
2023-02-28T21:36:45.786Z,4.60
2023-02-28T21:39:26.082Z,4.50
2023-02-28T21:41:54.025Z,4.50
2023-02-28T21:44:22.940Z,4.40
2023-02-28T21:46:52.404Z,4.40
2023-02-28T21:49:19.347Z,4.40
2023-02-28T21:51:46.420Z,4.40
2023-02-28T21:54:13.638Z,4.40
2023-02-28T21:56:40.956Z,4.30
2023-02-28T21:59:09.708Z,4.40
2023-02-28T22:01:37.939Z,4.40
2023-02-28T22:04:06.484Z,4.40
2023-02-28T22:06:37.676Z,4.30
2023-02-28T22:09:06.637Z,4.30
2023-02-28T22:11:34.538Z,4.30
2023-02-28T22:14:02.003Z,4.20
2023-02-28T22:16:33.134Z,4.30
2023-02-28T22:19:06.628Z,4.20
2023-02-28T22:21:34.539Z,4.20
2023-02-28T22:24:01.605Z,4.20
2023-02-28T22:26:28.959Z,4.20
2023-02-28T22:28:56.532Z,4.20
2023-02-28T22:31:23.550Z,4.30
2023-02-28T22:33:51.569Z,4.30
2023-02-28T22:36:19.385Z,4.30
2023-02-28T22:38:47.053Z,4.30
2023-02-28T22:41:14.389Z,4.30
2023-02-28T22:43:41.961Z,4.30
2023-02-28T22:46:10.844Z,4.30
2023-02-28T22:48:37.854Z,4.30
2023-02-28T22:51:06.058Z,4.30
2023-02-28T22:53:34.680Z,4.30
2023-02-28T22:56:01.879Z,4.30
2023-02-28T22:58:29.264Z,4.30
2023-02-28T23:00:56.510Z,4.30
2023-02-28T23:03:26.424Z,4.30
2023-02-28T23:05:53.704Z,4.30
2023-02-28T23:08:22.583Z,4.30
2023-02-28T23:10:50.909Z,4.30
2023-02-28T23:13:18.923Z,4.30
2023-02-28T23:15:46.691Z,4.20
2023-02-28T23:18:14.342Z,4.20
2023-02-28T23:20:41.334Z,4.20
2023-02-28T23:23:10.247Z,4.10
2023-02-28T23:25:40.368Z,4.10
2023-02-28T23:28:09.295Z,4.00
2023-02-28T23:30:39.268Z,4.00
2023-02-28T23:33:06.871Z,4.00
2023-02-28T23:35:35.271Z,3.90
2023-02-28T23:38:02.180Z,3.90
2023-02-28T23:40:29.152Z,3.90
2023-02-28T23:42:56.215Z,3.80
2023-02-28T23:45:23.137Z,3.80
2023-02-28T23:47:49.971Z,3.80
2023-02-28T23:50:16.936Z,3.80
2023-02-28T23:52:43.940Z,3.80
2023-02-28T23:55:11.093Z,3.80
2023-02-28T23:57:37.967Z,3.90
